Time;durP1;ratioP1;P1;durP2;ratioP2;P2;SDS_P1;SDS_P2;PMS_P1;PMS_P2;Temp;Humidity;BMP_temperature;BMP_pressure;BME280_temperature;BME280_humidity;BME280_pressure;Samples;Min_cycle;Max_cycle;Signal;HPM_P1;HPM_P2
2021/12/28 00:00:16;;;;;;;10.20;4.18;;;4.60;43.90;;;;;;5096551;28;20168;-48
2021/12/28 00:02:46;;;;;;;8.70;3.97;;;4.60;44.10;;;;;;5095934;28;20175;-48
2021/12/28 00:05:15;;;;;;;11.25;5.32;;;4.60;44.00;;;;;;5095615;28;20633;-48
2021/12/28 00:07:43;;;;;;;8.15;3.67;;;4.60;44.00;;;;;;5096615;28;20176;-48
2021/12/28 00:10:14;;;;;;;11.63;5.80;;;4.70;44.00;;;;;;5094374;28;20175;-48
2021/12/28 00:12:42;;;;;;;5.47;4.20;;;4.70;44.10;;;;;;5096393;28;20145;-49
2021/12/28 00:18:02;;;;;;;15.20;5.65;;;4.60;44.20;;;;;;5095518;28;20238;-48
2021/12/28 00:20:39;;;;;;;6.10;4.53;;;4.60;44.00;;;;;;5080808;28;20171;-48
2021/12/28 00:23:19;;;;;;;10.88;7.75;;;4.70;44.10;;;;;;5096081;28;20577;-48
2021/12/28 00:25:52;;;;;;;6.40;3.80;;;4.70;43.90;;;;;;5095369;28;20145;-48
2021/12/28 00:28:21;;;;;;;7.65;4.13;;;4.80;43.70;;;;;;5095349;28;20489;-49
2021/12/28 00:30:50;;;;;;;10.95;4.13;;;4.80;43.60;;;;;;5095191;28;20179;-49
2021/12/28 00:33:19;;;;;;;6.53;3.83;;;4.70;43.90;;;;;;5095360;28;20168;-47
2021/12/28 00:35:49;;;;;;;13.45;6.10;;;4.70;43.90;;;;;;5095325;28;20164;-48
2021/12/28 00:38:21;;;;;;;7.45;4.97;;;4.70;43.60;;;;;;5095128;28;20164;-48
2021/12/28 00:40:51;;;;;;;6.47;5.88;;;4.70;43.90;;;;;;5094805;28;20444;-48
2021/12/28 00:43:19;;;;;;;8.48;3.17;;;4.70;43.80;;;;;;5094882;28;20191;-49
2021/12/28 00:45:47;;;;;;;10.07;4.10;;;4.70;44.00;;;;;;5094946;28;20160;-49
2021/12/28 00:48:15;;;;;;;6.57;4.45;;;4.60;44.10;;;;;;5078495;28;20233;-47
2021/12/28 00:50:43;;;;;;;9.77;5.78;;;4.60;44.10;;;;;;5094824;28;20221;-48
2021/12/28 00:53:11;;;;;;;10.68;4.32;;;4.70;44.10;;;;;;5095615;28;20165;-48
2021/12/28 00:55:39;;;;;;;8.40;4.70;;;4.80;43.90;;;;;;5094721;28;20497;-48
2021/12/28 00:58:07;;;;;;;18.13;5.40;;;4.90;43.80;;;;;;5094710;28;20602;-49
2021/12/28 01:00:38;;;;;;;10.88;4.80;;;4.90;43.70;;;;;;5094839;28;20163;-48
2021/12/28 01:03:07;;;;;;;7.80;5.28;;;4.90;43.70;;;;;;5078127;28;20650;-48
2021/12/28 01:05:36;;;;;;;8.75;3.50;;;4.90;43.60;;;;;;5094672;28;20602;-48
2021/12/28 01:08:04;;;;;;;8.05;4.65;;;4.90;43.80;;;;;;5095370;28;20164;-48
2021/12/28 01:10:42;;;;;;;8.93;4.30;;;4.90;43.90;;;;;;5094569;28;20160;-49
2021/12/28 01:13:10;;;;;;;8.32;5.97;;;4.80;43.80;;;;;;5094472;28;20209;-48
2021/12/28 01:15:38;;;;;;;10.65;6.90;;;4.80;44.10;;;;;;5094478;28;20164;-48
2021/12/28 01:18:06;;;;;;;4.97;3.75;;;4.90;44.00;;;;;;5094464;28;20188;-48
2021/12/28 01:20:34;;;;;;;11.05;5.53;;;4.90;44.00;;;;;;5094095;28;20221;-48
2021/12/28 01:23:02;;;;;;;12.35;6.28;;;5.00;44.00;;;;;;5094378;28;20532;-48
2021/12/28 01:25:29;;;;;;;8.45;5.40;;;5.00;44.00;;;;;;5095285;28;20165;-48
2021/12/28 01:27:57;;;;;;;6.35;3.13;;;5.00;44.10;;;;;;5095274;28;20490;-48
2021/12/28 01:30:26;;;;;;;6.28;4.95;;;4.90;44.40;;;;;;5095066;28;20163;-48
2021/12/28 01:32:58;;;;;;;9.25;7.00;;;5.00;44.40;;;;;;5095124;28;20156;-48
2021/12/28 01:35:27;;;;;;;7.90;3.58;;;5.10;44.30;;;;;;5094362;28;20601;-48
2021/12/28 01:37:55;;;;;;;8.52;4.60;;;5.10;44.30;;;;;;5094119;28;20180;-48
2021/12/28 01:40:27;;;;;;;17.30;6.22;;;5.10;44.60;;;;;;5093955;28;20203;-48
2021/12/28 01:43:07;;;;;;;10.80;4.80;;;5.00;44.60;;;;;;5094413;28;20229;-49
2021/12/28 01:45:43;;;;;;;9.82;4.95;;;5.00;44.70;;;;;;5093945;28;20262;-48
2021/12/28 01:48:19;;;;;;;8.95;3.40;;;5.10;44.70;;;;;;5094414;28;20160;-48
2021/12/28 01:50:47;;;;;;;7.13;5.82;;;5.10;44.70;;;;;;5094879;28;20250;-50
2021/12/28 01:53:15;;;;;;;14.52;4.90;;;5.10;44.50;;;;;;5093982;28;20160;-49
2021/12/28 01:55:45;;;;;;;16.55;7.88;;;5.10;44.50;;;;;;5094026;28;20176;-48
2021/12/28 01:58:13;;;;;;;9.50;5.00;;;5.20;44.30;;;;;;5094030;28;20167;-48
2021/12/28 02:00:43;;;;;;;18.05;7.78;;;5.20;44.10;;;;;;5095034;28;20672;-48
2021/12/28 02:03:13;;;;;;;7.97;4.63;;;5.20;44.20;;;;;;5094648;28;20160;-49
2021/12/28 02:05:41;;;;;;;6.00;3.97;;;5.30;44.10;;;;;;5094930;28;20589;-48
2021/12/28 02:08:12;;;;;;;7.88;3.80;;;5.30;44.00;;;;;;5093869;28;20164;-48
2021/12/28 02:10:41;;;;;;;5.80;5.15;;;5.40;43.80;;;;;;5077771;28;20164;-48
2021/12/28 02:13:10;;;;;;;13.43;3.60;;;5.40;43.70;;;;;;5093786;28;20259;-48
2021/12/28 02:15:38;;;;;;;9.23;4.30;;;5.40;43.80;;;;;;5094737;28;20494;-48
2021/12/28 02:18:08;;;;;;;18.23;7.65;;;5.30;43.90;;;;;;5094786;28;20157;-48
2021/12/28 02:20:36;;;;;;;9.93;4.43;;;5.30;43.90;;;;;;5094829;28;20164;-49
2021/12/28 02:23:04;;;;;;;10.02;5.28;;;5.40;43.70;;;;;;5093836;28;20167;-48
2021/12/28 02:25:32;;;;;;;6.57;5.85;;;5.40;43.50;;;;;;5093718;28;20165;-48
2021/12/28 02:28:00;;;;;;;11.05;7.63;;;5.40;43.50;;;;;;5094539;28;20251;-48
2021/12/28 02:30:28;;;;;;;11.98;5.78;;;5.40;43.50;;;;;;5093862;28;20178;-48
2021/12/28 02:32:56;;;;;;;8.38;5.65;;;5.40;43.40;;;;;;5095675;28;20171;-48
2021/12/28 02:35:25;;;;;;;15.80;6.00;;;5.40;43.30;;;;;;5098512;28;20167;-48
2021/12/28 02:37:55;;;;;;;6.80;4.45;;;5.30;43.40;;;;;;5097410;28;20625;-48
2021/12/28 02:40:27;;;;;;;15.80;7.00;;;5.30;43.80;;;;;;5097313;28;20207;-48
2021/12/28 02:42:57;;;;;;;7.82;6.47;;;5.30;43.80;;;;;;5080886;28;20156;-48
2021/12/28 02:45:29;;;;;;;9.02;5.60;;;5.30;43.90;;;;;;5080418;28;20203;-48
2021/12/28 02:47:58;;;;;;;8.82;3.47;;;5.20;43.70;;;;;;5097496;28;20156;-49
2021/12/28 02:50:33;;;;;;;7.65;4.45;;;5.30;43.80;;;;;;5097303;28;20252;-47
2021/12/28 02:53:00;;;;;;;12.02;4.38;;;5.20;43.70;;;;;;5097288;28;20206;-49
2021/12/28 02:55:31;;;;;;;12.18;8.00;;;5.20;43.90;;;;;;5097252;28;20482;-48
2021/12/28 02:58:05;;;;;;;4.20;3.50;;;5.30;43.90;;;;;;5080452;28;20157;-48
2021/12/28 03:00:46;;;;;;;11.85;7.20;;;5.30;43.90;;;;;;5098119;28;20513;-49
2021/12/28 03:03:21;;;;;;;7.00;4.70;;;5.40;43.70;;;;;;5097084;28;20168;-48
2021/12/28 03:05:51;;;;;;;9.73;5.30;;;5.40;43.70;;;;;;5097396;28;20194;-48
2021/12/28 03:08:22;;;;;;;15.00;5.72;;;5.30;44.00;;;;;;5080502;28;20152;-49
2021/12/28 03:10:50;;;;;;;9.00;5.90;;;5.30;44.10;;;;;;5097009;28;20152;-47
2021/12/28 03:13:23;;;;;;;11.15;6.80;;;5.30;44.20;;;;;;5097603;28;20254;-48
2021/12/28 03:15:52;;;;;;;13.98;5.43;;;5.30;44.10;;;;;;5097711;28;20172;-49
2021/12/28 03:18:20;;;;;;;8.57;6.00;;;5.20;44.20;;;;;;5096641;28;20168;-48
2021/12/28 03:20:48;;;;;;;9.07;6.18;;;5.20;44.30;;;;;;5096761;28;20243;-49
2021/12/28 03:23:19;;;;;;;14.40;8.75;;;5.30;44.20;;;;;;5097593;28;20477;-48
2021/12/28 03:25:46;;;;;;;25.40;9.95;;;5.30;44.00;;;;;;5080199;28;20157;-49
2021/12/28 03:28:29;;;;;;;16.58;5.93;;;5.30;44.10;;;;;;5096412;28;20164;-48
2021/12/28 03:31:00;;;;;;;12.40;5.28;;;5.30;44.00;;;;;;5097299;28;20171;-48
2021/12/28 03:33:34;;;;;;;8.88;4.70;;;5.20;44.30;;;;;;5097408;28;20164;-47
2021/12/28 03:36:04;;;;;;;12.75;5.63;;;5.30;44.30;;;;;;5097377;28;20205;-48
2021/12/28 03:38:32;;;;;;;13.75;5.15;;;5.30;44.20;;;;;;5079874;28;20186;-47
2021/12/28 03:41:00;;;;;;;9.25;4.95;;;5.30;44.00;;;;;;5095756;28;20650;-48
2021/12/28 03:43:27;;;;;;;10.93;6.47;;;5.20;44.40;;;;;;5097047;28;20541;-48
2021/12/28 03:45:55;;;;;;;24.92;6.20;;;5.10;44.50;;;;;;5096238;28;20160;-48
2021/12/28 03:48:23;;;;;;;16.42;6.97;;;5.10;44.50;;;;;;5096863;28;20482;-48
2021/12/28 03:50:50;;;;;;;18.23;5.97;;;5.10;44.30;;;;;;5096880;28;20243;-48
2021/12/28 03:53:18;;;;;;;10.05;5.57;;;5.10;44.30;;;;;;5096923;28;20535;-48
2021/12/28 03:55:45;;;;;;;12.57;6.80;;;5.00;44.40;;;;;;5095901;28;20214;-49
2021/12/28 03:58:13;;;;;;;17.00;10.02;;;5.00;44.50;;;;;;5096680;28;20252;-48
2021/12/28 04:00:45;;;;;;;12.43;4.78;;;4.90;44.80;;;;;;5095737;28;20182;-48
2021/12/28 04:03:14;;;;;;;12.23;6.50;;;4.90;44.80;;;;;;5096867;28;20163;-48
2021/12/28 04:05:44;;;;;;;12.68;6.20;;;4.80;44.60;;;;;;5096808;28;20243;-48
2021/12/28 04:08:18;;;;;;;9.23;4.55;;;4.90;44.80;;;;;;5096419;28;20174;-48
2021/12/28 04:10:55;;;;;;;12.95;5.10;;;4.90;44.70;;;;;;5096427;28;20156;-47
2021/12/28 04:13:24;;;;;;;5.65;5.18;;;4.80;44.50;;;;;;5095353;28;20179;-47
2021/12/28 04:15:52;;;;;;;11.50;6.35;;;4.90;44.50;;;;;;5096380;28;20152;-48
2021/12/28 04:18:21;;;;;;;11.57;5.90;;;4.90;44.50;;;;;;5095435;28;20160;-48
2021/12/28 04:20:48;;;;;;;10.02;5.72;;;4.90;44.30;;;;;;5078889;28;20164;-48
2021/12/28 04:23:16;;;;;;;8.43;4.80;;;5.00;44.20;;;;;;5096451;28;20170;-47
2021/12/28 04:25:43;;;;;;;14.23;7.10;;;5.00;44.20;;;;;;5096161;28;20164;-47
2021/12/28 04:28:11;;;;;;;10.23;6.25;;;4.90;44.10;;;;;;5096205;28;20559;-48
2021/12/28 04:30:38;;;;;;;10.20;4.55;;;5.00;44.10;;;;;;5096074;28;20581;-48
2021/12/28 04:33:06;;;;;;;17.50;7.55;;;5.00;44.20;;;;;;5096143;28;20168;-48
2021/12/28 04:35:33;;;;;;;9.60;5.88;;;4.90;44.20;;;;;;5095103;28;20163;-48
2021/12/28 04:38:01;;;;;;;5.72;4.68;;;4.90;44.30;;;;;;5095948;28;20225;-47
2021/12/28 04:40:29;;;;;;;11.27;6.63;;;4.90;44.40;;;;;;5077976;28;20219;-48
2021/12/28 04:42:56;;;;;;;12.45;7.35;;;4.90;44.60;;;;;;5096128;28;20620;-48
2021/12/28 04:45:24;;;;;;;7.50;4.68;;;4.90;44.50;;;;;;5095737;28;20651;-47
2021/12/28 04:47:51;;;;;;;13.15;5.30;;;4.90;44.70;;;;;;5095878;28;20616;-47
2021/12/28 04:50:19;;;;;;;11.57;6.93;;;5.00;44.40;;;;;;5095727;28;20604;-47
2021/12/28 04:52:47;;;;;;;7.03;4.50;;;5.00;44.20;;;;;;5095007;28;20681;-47
2021/12/28 04:55:17;;;;;;;11.05;6.80;;;5.00;44.00;;;;;;5094382;28;20238;-49
2021/12/28 04:57:46;;;;;;;12.73;9.18;;;5.10;44.20;;;;;;5095662;28;20163;-48
2021/12/28 05:00:19;;;;;;;12.07;7.72;;;5.00;44.10;;;;;;5094649;28;20235;-47
2021/12/28 05:02:47;;;;;;;15.52;7.90;;;5.00;44.20;;;;;;5078755;28;20673;-47
2021/12/28 05:05:15;;;;;;;11.02;5.78;;;5.00;44.40;;;;;;5078651;28;20274;-48
2021/12/28 05:07:43;;;;;;;9.20;5.93;;;4.90;44.80;;;;;;5094550;28;20168;-47
2021/12/28 05:10:12;;;;;;;7.20;5.35;;;4.90;45.00;;;;;;5094357;28;20489;-48
2021/12/28 05:12:40;;;;;;;11.30;6.13;;;4.80;44.90;;;;;;5094759;28;20167;-48
2021/12/28 05:15:09;;;;;;;6.95;4.65;;;4.90;44.80;;;;;;5094465;28;20176;-48
2021/12/28 05:17:37;;;;;;;15.35;6.97;;;4.90;44.90;;;;;;5095398;28;20172;-47
2021/12/28 05:20:10;;;;;;;7.72;6.10;;;4.80;44.80;;;;;;5095167;28;20242;-48
2021/12/28 05:22:37;;;;;;;3.80;3.40;;;4.80;44.90;;;;;;5094306;28;20178;-47
2021/12/28 05:25:05;;;;;;;15.57;4.35;;;4.80;44.60;;;;;;5095062;28;20180;-47
2021/12/28 05:27:33;;;;;;;9.50;6.47;;;4.70;45.10;;;;;;5094407;28;20183;-48
2021/12/28 05:30:00;;;;;;;15.13;5.57;;;4.80;45.10;;;;;;5095231;28;20504;-48
2021/12/28 05:32:28;;;;;;;20.05;7.68;;;4.80;45.00;;;;;;5094693;28;20571;-48
2021/12/28 05:34:56;;;;;;;11.88;5.20;;;4.70;45.30;;;;;;5094127;28;20220;-49
2021/12/28 05:37:23;;;;;;;9.40;5.20;;;4.60;45.30;;;;;;5093991;28;20501;-47
2021/12/28 05:39:51;;;;;;;13.55;5.22;;;4.60;45.40;;;;;;5093926;28;20167;-48
2021/12/28 05:42:18;;;;;;;9.27;5.38;;;4.70;45.40;;;;;;5094066;28;20532;-47
2021/12/28 05:44:46;;;;;;;7.38;4.80;;;4.70;45.40;;;;;;5094447;28;20620;-47
2021/12/28 05:47:14;;;;;;;11.68;3.22;;;4.60;45.30;;;;;;5094235;28;20165;-48
2021/12/28 05:49:42;;;;;;;15.25;7.15;;;4.60;45.60;;;;;;5060749;28;20183;-48
2021/12/28 05:52:09;;;;;;;17.27;5.15;;;4.60;45.50;;;;;;5093887;28;20175;-48
2021/12/28 05:54:39;;;;;;;9.18;5.18;;;4.60;45.50;;;;;;5094896;28;20194;-48
2021/12/28 05:57:09;;;;;;;13.57;5.28;;;4.60;45.70;;;;;;5094746;28;20168;-48
2021/12/28 05:59:37;;;;;;;5.03;3.40;;;4.60;45.60;;;;;;5093908;28;20229;-47
2021/12/28 06:02:06;;;;;;;9.38;5.55;;;4.70;45.60;;;;;;5077494;28;20172;-48
2021/12/28 06:04:34;;;;;;;10.57;5.43;;;4.60;45.80;;;;;;5077345;28;20217;-48
2021/12/28 06:07:02;;;;;;;8.73;5.10;;;4.60;45.80;;;;;;5095965;28;20170;-48
2021/12/28 06:09:30;;;;;;;4.75;3.10;;;4.60;45.80;;;;;;5098065;28;20156;-48
2021/12/28 06:11:57;;;;;;;10.88;4.25;;;4.50;46.00;;;;;;5098102;28;20188;-48
2021/12/28 06:14:24;;;;;;;8.38;4.95;;;4.50;46.50;;;;;;5098312;28;20199;-48
2021/12/28 06:16:51;;;;;;;10.00;6.30;;;4.50;46.40;;;;;;5098113;28;20202;-48
2021/12/28 06:19:19;;;;;;;8.90;4.03;;;4.50;46.50;;;;;;5081122;28;20172;-49
2021/12/28 06:21:47;;;;;;;15.57;8.02;;;4.50;46.30;;;;;;5097736;28;20160;-49
2021/12/28 06:24:14;;;;;;;10.68;5.55;;;4.50;46.40;;;;;;5097762;28;20195;-48
2021/12/28 06:26:41;;;;;;;4.65;4.20;;;4.50;46.60;;;;;;5097520;28;20225;-49
2021/12/28 06:29:11;;;;;;;7.90;3.83;;;4.50;46.40;;;;;;5098290;28;20247;-48
2021/12/28 06:31:38;;;;;;;10.15;3.50;;;4.50;46.50;;;;;;5097570;28;20495;-49
2021/12/28 06:34:07;;;;;;;13.60;7.50;;;4.60;46.30;;;;;;5097505;28;20172;-47
2021/12/28 06:36:35;;;;;;;16.83;4.80;;;4.60;45.90;;;;;;5098288;28;20620;-48
2021/12/28 06:39:04;;;;;;;6.03;3.70;;;4.70;45.80;;;;;;5097846;28;20631;-47
2021/12/28 06:41:31;;;;;;;11.10;7.10;;;4.70;45.60;;;;;;5097109;28;20204;-49
2021/12/28 06:43:59;;;;;;;8.98;5.13;;;4.80;45.60;;;;;;5098801;28;20276;-48
2021/12/28 06:46:26;;;;;;;7.78;4.15;;;4.80;45.40;;;;;;5098155;28;20160;-48
2021/12/28 06:48:54;;;;;;;10.65;3.38;;;4.80;45.40;;;;;;5098072;28;20492;-47
2021/12/28 06:51:21;;;;;;;19.42;6.32;;;4.80;45.40;;;;;;5098175;28;20151;-48
2021/12/28 06:53:49;;;;;;;7.60;5.90;;;4.80;45.40;;;;;;5097552;28;20171;-47
2021/12/28 06:56:17;;;;;;;12.88;4.97;;;4.90;45.40;;;;;;5097860;28;20247;-49
2021/12/28 06:58:44;;;;;;;14.50;4.68;;;5.00;45.00;;;;;;5097065;28;20597;-48
2021/12/28 07:01:12;;;;;;;5.90;3.92;;;4.90;45.00;;;;;;5097010;28;20172;-48
2021/12/28 07:03:39;;;;;;;9.73;5.75;;;5.00;44.80;;;;;;5098225;28;20514;-48
2021/12/28 07:06:07;;;;;;;5.72;4.03;;;4.90;45.00;;;;;;5096871;28;20160;-48
2021/12/28 07:08:36;;;;;;;9.63;4.97;;;4.90;45.20;;;;;;5097054;28;20169;-49
2021/12/28 07:11:04;;;;;;;6.75;4.85;;;4.80;45.30;;;;;;5096761;28;20167;-49
2021/12/28 07:13:32;;;;;;;10.88;5.00;;;4.80;45.40;;;;;;5097627;28;20237;-49
2021/12/28 07:15:59;;;;;;;12.23;4.03;;;4.90;45.40;;;;;;5097486;28;20160;-48
2021/12/28 07:18:27;;;;;;;11.07;4.38;;;4.90;45.80;;;;;;5096778;28;20175;-50
2021/12/28 07:20:55;;;;;;;3.63;2.53;;;5.00;45.00;;;;;;5080369;28;20156;-48
2021/12/28 07:23:22;;;;;;;13.52;4.57;;;4.90;45.00;;;;;;5096615;28;20485;-49
2021/12/28 07:25:53;;;;;;;12.85;4.75;;;4.90;45.00;;;;;;5097364;28;20152;-50
2021/12/28 07:28:21;;;;;;;10.52;4.72;;;5.00;44.90;;;;;;5097469;28;20157;-49
2021/12/28 07:30:49;;;;;;;12.88;6.45;;;5.00;45.00;;;;;;5097226;28;20686;-48
2021/12/28 07:33:17;;;;;;;6.28;5.18;;;5.00;44.90;;;;;;5097191;28;20523;-47
2021/12/28 07:35:45;;;;;;;10.90;5.18;;;5.00;44.80;;;;;;5097243;28;20174;-49
2021/12/28 07:38:12;;;;;;;6.95;5.53;;;5.20;44.70;;;;;;5096428;28;20164;-49
2021/12/28 07:40:39;;;;;;;8.57;4.15;;;5.20;44.60;;;;;;5095955;28;20277;-49
2021/12/28 07:43:07;;;;;;;4.40;3.20;;;5.00;44.60;;;;;;5096329;28;20175;-49
2021/12/28 07:45:36;;;;;;;2.38;2.17;;;5.00;44.80;;;;;;5096423;28;20192;-49
2021/12/28 07:48:04;;;;;;;7.10;3.67;;;5.10;44.80;;;;;;5096228;28;20206;-49
2021/12/28 07:50:31;;;;;;;13.88;5.60;;;5.10;44.60;;;;;;5095968;28;20525;-49
2021/12/28 07:52:59;;;;;;;8.35;5.63;;;5.10;44.60;;;;;;5097046;28;20164;-48
2021/12/28 07:55:26;;;;;;;5.13;3.53;;;5.10;44.30;;;;;;5079634;28;20183;-48
2021/12/28 07:57:54;;;;;;;8.90;4.97;;;5.20;44.30;;;;;;5096290;28;20159;-49
2021/12/28 08:00:23;;;;;;;9.68;4.95;;;5.20;44.40;;;;;;5095942;28;20175;-49
2021/12/28 08:02:51;;;;;;;8.45;4.50;;;5.20;44.30;;;;;;5079235;28;20168;-49
2021/12/28 08:05:19;;;;;;;11.68;5.15;;;5.10;44.30;;;;;;5095846;28;20562;-48
2021/12/28 08:07:46;;;;;;;8.15;5.18;;;5.10;44.50;;;;;;5096854;28;20152;-49
2021/12/28 08:10:16;;;;;;;9.65;8.65;;;5.10;44.30;;;;;;5096459;28;20229;-49
2021/12/28 08:12:44;;;;;;;8.02;5.15;;;5.20;44.20;;;;;;5095710;28;20175;-49
2021/12/28 08:15:12;;;;;;;8.80;5.55;;;5.30;44.20;;;;;;5095542;28;20179;-49
2021/12/28 08:17:39;;;;;;;9.60;5.00;;;5.40;43.80;;;;;;5096667;28;20493;-49
2021/12/28 08:20:11;;;;;;;7.93;4.75;;;5.40;43.60;;;;;;5096247;28;20172;-49
2021/12/28 08:22:39;;;;;;;12.77;7.15;;;5.50;43.70;;;;;;5095722;28;20164;-48
2021/12/28 08:25:09;;;;;;;12.73;5.43;;;5.50;43.20;;;;;;5095415;28;20278;-48
2021/12/28 08:27:37;;;;;;;7.75;4.05;;;5.70;43.00;;;;;;5096105;28;20628;-47
2021/12/28 08:30:05;;;;;;;6.25;3.85;;;5.80;42.60;;;;;;5094373;28;20173;-49
2021/12/28 08:32:33;;;;;;;6.45;4.00;;;5.80;42.50;;;;;;5095388;28;20160;-49
2021/12/28 08:35:01;;;;;;;9.27;6.00;;;5.80;42.20;;;;;;5095104;28;20164;-49
2021/12/28 08:37:28;;;;;;;7.20;4.00;;;5.80;42.00;;;;;;5096020;28;20488;-48
2021/12/28 08:39:56;;;;;;;8.32;4.82;;;5.70;42.20;;;;;;5078174;28;20179;-50
2021/12/28 08:42:24;;;;;;;14.23;6.97;;;5.70;42.30;;;;;;5095508;28;20172;-49
2021/12/28 08:44:52;;;;;;;6.60;3.28;;;5.70;42.20;;;;;;5095937;28;20192;-48
2021/12/28 08:47:22;;;;;;;11.55;4.85;;;5.70;42.50;;;;;;5095935;28;20217;-48
2021/12/28 08:49:50;;;;;;;14.43;6.05;;;5.70;42.60;;;;;;5094708;28;20172;-49
2021/12/28 08:52:17;;;;;;;16.13;3.95;;;5.60;42.60;;;;;;5078102;28;20175;-50
2021/12/28 08:54:45;;;;;;;7.43;4.78;;;5.70;43.30;;;;;;5094745;28;20168;-49
2021/12/28 08:57:13;;;;;;;7.50;3.83;;;5.70;42.50;;;;;;5095644;28;20167;-48
2021/12/28 08:59:41;;;;;;;8.65;4.55;;;5.70;42.40;;;;;;5095556;28;20604;-49
2021/12/28 09:02:10;;;;;;;9.55;4.18;;;5.70;42.50;;;;;;5095503;28;20168;-48
2021/12/28 09:04:42;;;;;;;7.65;5.20;;;5.80;42.60;;;;;;5094725;28;20241;-49
2021/12/28 09:07:12;;;;;;;6.90;5.00;;;5.80;42.10;;;;;;5062852;28;20175;-49
2021/12/28 09:09:40;;;;;;;9.43;4.28;;;6.00;41.90;;;;;;5095547;28;20163;-48
2021/12/28 09:12:09;;;;;;;9.93;5.40;;;6.00;41.70;;;;;;5094710;28;20264;-49
2021/12/28 09:14:36;;;;;;;10.00;6.03;;;6.10;41.60;;;;;;5094466;28;20172;-49
2021/12/28 09:17:04;;;;;;;7.38;6.50;;;6.30;41.50;;;;;;5077941;28;20163;-49
2021/12/28 09:19:32;;;;;;;8.05;4.70;;;6.50;41.20;;;;;;5095243;28;20192;-49
2021/12/28 09:22:00;;;;;;;11.38;4.50;;;6.70;40.60;;;;;;5077575;28;20210;-49
2021/12/28 09:24:28;;;;;;;5.78;3.75;;;7.00;40.00;;;;;;5094257;28;20195;-49
2021/12/28 09:26:55;;;;;;;6.47;4.82;;;7.10;39.40;;;;;;5095266;28;20160;-48
2021/12/28 09:29:29;;;;;;;10.52;5.30;;;7.20;39.20;;;;;;5094135;28;20196;-49
2021/12/28 09:31:59;;;;;;;11.32;4.45;;;7.30;39.20;;;;;;5078091;28;20186;-48
2021/12/28 09:34:27;;;;;;;8.23;4.07;;;7.30;38.50;;;;;;5095027;28;20186;-49
2021/12/28 09:36:56;;;;;;;10.15;5.32;;;7.50;38.70;;;;;;5094085;28;20239;-49
2021/12/28 09:39:27;;;;;;;10.38;4.72;;;7.50;38.60;;;;;;5094265;28;20164;-49
2021/12/28 09:42:01;;;;;;;8.73;5.20;;;7.60;38.40;;;;;;5094469;28;20267;-49
2021/12/28 09:44:32;;;;;;;9.48;5.85;;;7.80;38.00;;;;;;5094860;28;20195;-47
2021/12/28 09:47:01;;;;;;;9.25;5.28;;;8.00;37.40;;;;;;5095038;28;20577;-49
2021/12/28 09:49:29;;;;;;;7.38;4.60;;;8.30;37.30;;;;;;5077804;28;20197;-49
2021/12/28 09:52:04;;;;;;;8.55;6.63;;;8.40;36.70;;;;;;5094830;28;20167;-49
2021/12/28 09:54:33;;;;;;;12.07;5.45;;;8.60;36.80;;;;;;5095145;28;20167;-48
2021/12/28 09:57:01;;;;;;;4.88;3.83;;;8.70;36.00;;;;;;5094031;28;20500;-50
2021/12/28 09:59:31;;;;;;;8.23;4.80;;;8.80;36.40;;;;;;5094920;28;20179;-48
2021/12/28 10:02:06;;;;;;;7.90;5.72;;;8.70;35.90;;;;;;5093817;28;20293;-49
2021/12/28 10:04:35;;;;;;;9.38;5.20;;;8.70;36.20;;;;;;5077693;28;20294;-49
2021/12/28 10:07:21;;;;;;;8.70;4.88;;;8.60;35.90;;;;;;5093820;28;20156;-49
2021/12/28 10:09:49;;;;;;;7.45;5.38;;;8.60;36.30;;;;;;5093991;28;20267;-48
2021/12/28 10:12:40;;;;;;;8.32;4.35;;;8.70;36.20;;;;;;5094909;28;20171;-47
2021/12/28 10:15:10;;;;;;;6.95;4.70;;;9.00;36.00;;;;;;5093648;28;20181;-47
2021/12/28 10:17:41;;;;;;;7.05;4.10;;;9.50;35.30;;;;;;5094871;28;20532;-48
2021/12/28 10:20:19;;;;;;;7.07;3.80;;;10.00;34.00;;;;;;5093755;28;20174;-49
2021/12/28 10:22:52;;;;;;;5.05;4.50;;;10.60;33.70;;;;;;5077742;28;20171;-48
2021/12/28 10:25:24;;;;;;;8.88;4.72;;;10.80;32.70;;;;;;5094561;28;20268;-49
2021/12/28 10:27:57;;;;;;;7.22;3.75;;;11.10;32.50;;;;;;5077671;28;20163;-48
2021/12/28 10:30:52;;;;;;;6.97;4.00;;;11.60;31.20;;;;;;5093439;28;20171;-49
2021/12/28 10:33:23;;;;;;;6.28;4.45;;;12.00;31.10;;;;;;5089486;28;20176;-48
2021/12/28 10:36:02;;;;;;;8.02;4.35;;;12.40;29.90;;;;;;5094696;28;20171;-48
2021/12/28 10:38:33;;;;;;;8.65;4.15;;;12.70;29.50;;;;;;5076695;28;20171;-48
2021/12/28 10:41:14;;;;;;;6.03;4.38;;;12.90;29.10;;;;;;5093527;28;20212;-49
2021/12/28 10:43:46;;;;;;;8.65;5.20;;;13.10;28.40;;;;;;5094450;28;20199;-49
2021/12/28 10:46:19;;;;;;;6.22;4.75;;;13.10;28.30;;;;;;5077240;28;20473;-49
2021/12/28 10:48:52;;;;;;;5.22;3.22;;;13.20;28.30;;;;;;5093530;28;20239;-49
2021/12/28 10:51:31;;;;;;;8.77;3.60;;;13.30;28.00;;;;;;5093477;28;20151;-49
2021/12/28 10:54:12;;;;;;;7.95;4.25;;;13.20;28.00;;;;;;5095703;28;20160;-49
2021/12/28 10:57:01;;;;;;;7.65;4.47;;;12.80;28.60;;;;;;5097985;28;20488;-49
2021/12/28 10:59:34;;;;;;;10.02;4.80;;;12.40;29.10;;;;;;5098210;28;20164;-50
2021/12/28 11:02:03;;;;;;;5.50;3.90;;;11.90;29.80;;;;;;5097194;28;20155;-48
2021/12/28 11:04:38;;;;;;;8.65;3.67;;;11.30;30.50;;;;;;5097819;28;20245;-48
2021/12/28 11:07:08;;;;;;;10.40;4.28;;;10.90;32.20;;;;;;5097137;28;20164;-48
2021/12/28 11:09:45;;;;;;;9.00;4.30;;;10.20;32.40;;;;;;5096775;28;20619;-47
2021/12/28 11:12:12;;;;;;;10.85;5.60;;;9.70;33.90;;;;;;5096769;28;20581;-48
2021/12/28 11:14:42;;;;;;;5.65;3.88;;;9.40;34.30;;;;;;5096699;28;20600;-49
2021/12/28 11:17:11;;;;;;;7.50;4.32;;;9.10;35.00;;;;;;5080441;28;20239;-48
2021/12/28 11:19:39;;;;;;;5.50;3.38;;;8.90;35.60;;;;;;5097409;28;20176;-48
2021/12/28 11:22:14;;;;;;;10.02;5.45;;;8.90;36.60;;;;;;5096547;28;20194;-48
2021/12/28 11:24:45;;;;;;;7.70;3.53;;;9.00;36.50;;;;;;5096360;28;20204;-49
2021/12/28 11:27:30;;;;;;;7.53;4.82;;;9.10;36.10;;;;;;5096664;28;20485;-48
2021/12/28 11:29:59;;;;;;;11.18;5.43;;;9.20;36.40;;;;;;5096691;28;20168;-49
2021/12/28 11:32:27;;;;;;;10.57;4.85;;;9.40;36.70;;;;;;5097301;28;20170;-49
2021/12/28 11:34:55;;;;;;;6.40;3.97;;;9.90;36.10;;;;;;5097199;28;20161;-49
2021/12/28 11:37:26;;;;;;;6.75;4.32;;;10.40;34.50;;;;;;5097115;28;20484;-49
2021/12/28 11:39:59;;;;;;;8.15;4.50;;;10.70;33.90;;;;;;5095936;28;20198;-48
2021/12/28 11:42:28;;;;;;;9.02;5.25;;;10.60;33.50;;;;;;5096727;28;20237;-49
2021/12/28 11:44:56;;;;;;;7.93;4.90;;;10.20;33.90;;;;;;5096510;28;20201;-50
2021/12/28 11:47:25;;;;;;;8.10;4.38;;;9.80;34.60;;;;;;5079416;28;20601;-49
2021/12/28 11:49:56;;;;;;;6.93;3.72;;;9.50;35.40;;;;;;5097408;28;20261;-48
2021/12/28 11:52:25;;;;;;;7.38;5.45;;;9.30;36.10;;;;;;5079952;28;20173;-47
2021/12/28 11:54:54;;;;;;;7.50;4.15;;;9.40;36.30;;;;;;5079428;28;20170;-48
2021/12/28 11:57:27;;;;;;;16.17;5.25;;;9.50;36.10;;;;;;5097218;28;20164;-49
2021/12/28 12:00:01;;;;;;;8.35;4.10;;;9.60;36.40;;;;;;5062736;28;20577;-49
2021/12/28 12:02:53;;;;;;;12.80;4.85;;;9.60;36.10;;;;;;5096856;28;20230;-48
2021/12/28 12:05:28;;;;;;;13.15;4.95;;;9.60;36.20;;;;;;5084890;28;20213;-48
2021/12/28 12:08:14;;;;;;;9.77;4.50;;;9.40;36.30;;;;;;5096506;28;20174;-49
2021/12/28 12:10:44;;;;;;;5.45;3.30;;;9.20;37.10;;;;;;5095700;28;20250;-48
2021/12/28 12:13:25;;;;;;;9.23;4.07;;;9.10;37.20;;;;;;5079168;28;20161;-49
2021/12/28 12:16:10;;;;;;;6.32;3.40;;;9.20;37.70;;;;;;5096410;28;20148;-48
2021/12/28 12:18:51;;;;;;;6.15;3.78;;;9.40;36.90;;;;;;5095483;28;20611;-49
2021/12/28 12:21:20;;;;;;;15.65;4.30;;;9.50;36.60;;;;;;5078758;28;20160;-47
2021/12/28 12:23:54;;;;;;;4.85;2.47;;;9.70;36.70;;;;;;5096227;28;20201;-48
2021/12/28 12:26:48;;;;;;;9.88;4.43;;;9.70;36.30;;;;;;5079545;28;20541;-48
2021/12/28 12:29:22;;;;;;;7.40;4.38;;;9.50;36.30;;;;;;5091217;28;20611;-48
2021/12/28 12:31:51;;;;;;;11.90;5.55;;;9.50;36.10;;;;;;5095936;28;20173;-49
2021/12/28 12:34:32;;;;;;;6.25;3.60;;;9.20;36.70;;;;;;5095080;28;20517;-49
2021/12/28 12:37:00;;;;;;;6.25;3.83;;;8.70;37.20;;;;;;5096184;28;20188;-49
2021/12/28 12:39:39;;;;;;;9.15;3.63;;;8.50;37.70;;;;;;5095282;28;20252;-48
2021/12/28 12:42:12;;;;;;;6.13;3.40;;;8.30;38.40;;;;;;5095770;28;20213;-50
2021/12/28 12:44:40;;;;;;;5.40;3.40;;;8.20;38.70;;;;;;5078891;28;20721;-48
2021/12/28 12:47:09;;;;;;;8.32;3.15;;;8.10;39.10;;;;;;5095040;28;20595;-49
2021/12/28 12:49:37;;;;;;;11.05;4.85;;;8.00;39.20;;;;;;5095188;28;20192;-47
2021/12/28 12:52:20;;;;;;;9.68;4.47;;;7.90;39.50;;;;;;5095554;28;20163;-49
2021/12/28 12:54:50;;;;;;;4.30;3.10;;;7.80;39.80;;;;;;5095879;28;20157;-48
2021/12/28 12:57:26;;;;;;;8.27;5.10;;;7.70;40.00;;;;;;5095160;28;20160;-49
2021/12/28 13:00:00;;;;;;;7.10;3.50;;;7.60;40.60;;;;;;5094952;28;20168;-49
2021/12/28 13:02:31;;;;;;;7.18;4.50;;;7.40;41.10;;;;;;5095544;28;20184;-49
2021/12/28 13:05:22;;;;;;;8.45;3.95;;;7.20;41.70;;;;;;5095469;28;20211;-50
2021/12/28 13:07:51;;;;;;;9.02;4.60;;;7.10;41.90;;;;;;5094522;28;20180;-49
2021/12/28 13:10:27;;;;;;;8.30;4.80;;;7.10;42.20;;;;;;5094765;28;20665;-50